Huvudsida
METAR-TAF:

METAR-TAF

Flygplatser :

Trollhättan-Vänersborgs flygplats

Trollhättan-Vänersborg, Sverige

latitud: 58-19N, longitud: 012-21E, höjd: 41 m

Aktuellt väderrapport

Denna rapport gjordes för 16 minuter sedan, klockan 11:50 UTC
Vind 10 kt från nord
Temperatur 3°C
Fuktighet 81%
Tryck 1020 hPa
Sikt 10 km eller mer
Brutna moln på en höjd av 1600 ft

METAR: ESGT 111150Z 36010KT 9999 BKN016 03/00 Q1020

Tid: 13:06 (12:06 UTC)

Väderprognos

Denna rapport gjordes för 36 minuter sedan, klockan 11:30 UTC
Prognos gäller från 11 kl. 12 UTC till 11 kl. 18 UTC
Vind 12 kt från nord
Sikt 10 km eller mer
Brutna moln på en höjd av 2500 ft
Sannolikhet 40%
från 11 kl. 12 UTC till 11 kl. 15 UTC
Brutna moln på en höjd av 1200 ft

TAF: ESGT 111130Z 1112/1118 36012KT 9999 BKN025 PROB40 1112/1115 BKN012

Aktuella väderrapporter och prognoser från 4000 flygplatser (METAR- och TAF-rapporter).

De tillgängliga stationerna syns som gula och röda prickar på kartan.

För musen över prickarna för att se namnen på stationerna.

Klicka sedan för att få väderrapporter och prognoser.

För att ändra kartan: Klicka på de gröna knapparna med ett svart kors på för att zooma in; den gröna knappen med ett streck på för att zooma ut; eller på de gröna pilarna för angränsande kartor.


METAR-TAF: